Alford, Indiana
Current Conditions -  °F | °C
As of 5:55 PM on Thursday 27 Nov 2014 (Local Time) from KDCY Reporting Station
Overcast Overcast  
Wind Chill: -6°   Ceiling: 3800
Heat Index: -2°   Visibility: 10mi
Dew Point: -6°   Wind: 9mph
Humidity: 71%   Direction: 290°WNW
Pressure: 30.45"   Gusts: NA
Location:  38.4723°N, 87.3105°W
Report Text: KDCY 272355Z AUTO 29008KT 10SM BKN038 OVC044 M02/M06 A3045 RMK AO2 T10161062 11011 21020
Loading
Personal Weather Stations






























Interactive Weather Map New forecast layout! Learn more

10-Day Weather Forecast

Advertisements
Track Severe Weather on mobile